createdAt,value
2017-11-11T00:00:01.799Z,18.23
2017-11-11T00:02:29.329Z,18.17
2017-11-11T00:04:56.851Z,15.43
2017-11-11T00:07:24.391Z,13.18
2017-11-11T00:09:51.915Z,13.50
2017-11-11T00:12:19.449Z,14.75
2017-11-11T00:14:46.970Z,11.70
2017-11-11T00:17:14.933Z,17.50
2017-11-11T00:19:42.446Z,14.80
2017-11-11T00:22:09.961Z,12.98
2017-11-11T00:24:37.509Z,12.55
2017-11-11T00:27:05.034Z,13.65
2017-11-11T00:29:32.982Z,12.80
2017-11-11T00:32:00.505Z,13.73
2017-11-11T00:34:28.038Z,12.00
2017-11-11T00:36:55.557Z,14.18
2017-11-11T00:39:23.085Z,12.60
2017-11-11T00:41:51.024Z,11.77
2017-11-11T00:44:18.566Z,17.62
2017-11-11T00:46:46.489Z,22.02
2017-11-11T00:49:14.036Z,12.05
2017-11-11T00:51:41.557Z,21.60
2017-11-11T00:54:09.078Z,13.52
2017-11-11T00:56:36.679Z,20.35
2017-11-11T00:59:04.219Z,15.32
2017-11-11T01:01:31.823Z,19.35
2017-11-11T01:03:59.342Z,18.37
2017-11-11T01:06:26.889Z,13.60
2017-11-11T01:08:54.401Z,14.13
2017-11-11T01:11:21.958Z,15.57
2017-11-11T01:13:49.874Z,15.43
2017-11-11T01:16:17.418Z,18.60
2017-11-11T01:18:44.934Z,19.60
2017-11-11T01:21:12.503Z,20.80
2017-11-11T01:23:40.029Z,14.52
2017-11-11T01:26:07.551Z,12.70
2017-11-11T01:28:35.107Z,16.00
2017-11-11T01:31:02.622Z,11.60
2017-11-11T01:33:30.559Z,18.23
2017-11-11T01:35:58.078Z,25.33
2017-11-11T01:38:26.009Z,16.42
2017-11-11T01:40:53.533Z,11.88
2017-11-11T01:43:21.490Z,12.82
2017-11-11T01:45:49.015Z,15.65
2017-11-11T01:48:16.537Z,17.10
2017-11-11T01:50:44.089Z,21.23
2017-11-11T01:53:11.624Z,16.73
2017-11-11T01:55:39.153Z,12.68
2017-11-11T01:58:06.689Z,14.57
2017-11-11T02:00:34.226Z,15.50
2017-11-11T02:03:01.751Z,24.27
2017-11-11T02:05:29.312Z,12.15
2017-11-11T02:07:56.841Z,20.40
2017-11-11T02:10:24.380Z,15.07
2017-11-11T02:12:51.919Z,13.90
2017-11-11T02:15:19.442Z,16.48
2017-11-11T02:17:47.375Z,14.02
2017-11-11T02:20:14.899Z,13.13
2017-11-11T02:22:42.434Z,15.88
2017-11-11T02:25:09.949Z,18.02
2017-11-11T02:27:37.518Z,14.82
2017-11-11T02:30:05.468Z,17.35
2017-11-11T02:32:32.998Z,15.48
2017-11-11T02:35:00.539Z,15.45
2017-11-11T02:37:28.067Z,13.27
2017-11-11T02:39:55.615Z,14.20
2017-11-11T02:42:23.140Z,14.23
2017-11-11T02:44:51.083Z,18.90
2017-11-11T02:47:18.598Z,13.60
2017-11-11T02:49:46.548Z,11.55
2017-11-11T02:52:14.060Z,17.50
2017-11-11T02:54:41.978Z,14.10
2017-11-11T02:57:09.525Z,11.75
2017-11-11T02:59:37.062Z,17.73
2017-11-11T03:02:04.999Z,15.20
2017-11-11T03:04:32.524Z,21.27
2017-11-11T03:07:00.071Z,19.60
2017-11-11T03:09:27.592Z,26.37
2017-11-11T03:11:55.175Z,16.83
2017-11-11T03:14:22.699Z,11.50
2017-11-11T03:16:50.221Z,16.50
2017-11-11T03:19:17.767Z,9.00
2017-11-11T03:21:45.311Z,16.30
2017-11-11T03:24:12.859Z,13.38
2017-11-11T03:26:40.374Z,10.30
2017-11-11T03:29:08.310Z,13.77
2017-11-11T03:31:35.841Z,15.63
2017-11-11T03:34:03.393Z,15.88
2017-11-11T03:36:31.312Z,13.35
2017-11-11T03:38:58.844Z,16.02
2017-11-11T03:41:26.403Z,12.10
2017-11-11T03:43:54.326Z,13.57
2017-11-11T03:46:21.876Z,12.77
2017-11-11T03:48:49.399Z,14.52
2017-11-11T03:51:16.948Z,15.63
2017-11-11T03:53:44.457Z,14.20
2017-11-11T03:56:12.012Z,12.57
2017-11-11T03:58:39.536Z,14.18
2017-11-11T04:01:07.060Z,10.80
2017-11-11T04:03:34.616Z,10.20
2017-11-11T04:06:02.125Z,14.63
2017-11-11T04:08:29.653Z,15.40
2017-11-11T04:10:57.175Z,14.85
2017-11-11T04:13:25.132Z,15.73
2017-11-11T04:15:52.665Z,11.75
2017-11-11T04:18:20.184Z,11.85
2017-11-11T04:20:47.718Z,12.88
2017-11-11T04:23:15.246Z,12.10
2017-11-11T04:25:43.182Z,14.07
2017-11-11T04:28:10.705Z,14.95
2017-11-11T04:30:38.270Z,13.80
2017-11-11T04:33:05.795Z,10.93
2017-11-11T04:35:33.306Z,17.95
2017-11-11T04:38:01.239Z,14.38
2017-11-11T04:40:28.758Z,10.30
2017-11-11T04:42:56.686Z,16.42
2017-11-11T04:45:24.211Z,14.50
2017-11-11T04:47:51.758Z,17.62
2017-11-11T04:50:19.286Z,14.93
2017-11-11T04:52:46.811Z,12.43
2017-11-11T04:55:14.748Z,16.17
2017-11-11T04:57:42.278Z,15.73
2017-11-11T05:00:10.214Z,12.68
2017-11-11T05:02:37.734Z,8.95
2017-11-11T05:05:05.295Z,16.15
2017-11-11T05:07:33.214Z,10.32
2017-11-11T05:10:00.792Z,13.02
2017-11-11T05:12:28.313Z,16.65
2017-11-11T05:14:56.234Z,8.77
2017-11-11T05:17:23.780Z,13.70
2017-11-11T05:19:51.692Z,10.82
2017-11-11T05:22:19.221Z,14.75
2017-11-11T05:24:47.133Z,10.35
2017-11-11T05:27:14.670Z,10.48
2017-11-11T05:29:42.592Z,11.10
2017-11-11T05:32:10.161Z,9.20
2017-11-11T05:34:37.710Z,16.02
2017-11-11T05:37:05.234Z,10.60
2017-11-11T05:39:32.773Z,12.43
2017-11-11T05:42:00.304Z,15.10
2017-11-11T05:44:27.842Z,14.82
2017-11-11T05:46:55.369Z,14.70
2017-11-11T05:49:22.897Z,14.05
2017-11-11T05:51:50.424Z,16.73
2017-11-11T05:54:17.979Z,13.35
2017-11-11T05:56:45.509Z,19.90
2017-11-11T05:59:13.021Z,10.85
2017-11-11T06:01:40.553Z,16.12
2017-11-11T06:04:08.079Z,13.55
2017-11-11T06:06:35.622Z,10.15
2017-11-11T06:09:03.564Z,17.87
2017-11-11T06:11:31.107Z,16.62
2017-11-11T06:13:58.628Z,12.00
2017-11-11T06:16:26.199Z,16.50
2017-11-11T06:18:53.731Z,13.23
2017-11-11T06:21:21.262Z,13.27
2017-11-11T06:23:49.199Z,17.73
2017-11-11T06:26:16.719Z,15.73
2017-11-11T06:28:44.658Z,13.43
2017-11-11T06:31:12.178Z,16.65
2017-11-11T06:33:39.723Z,14.93
2017-11-11T06:36:07.240Z,18.23
2017-11-11T06:38:34.803Z,16.37
2017-11-11T06:41:02.332Z,15.85
2017-11-11T06:43:29.860Z,14.93
2017-11-11T06:45:57.397Z,15.13
2017-11-11T06:48:25.306Z,21.35
2017-11-11T06:50:52.834Z,7.65
2017-11-11T06:53:20.754Z,12.65
2017-11-11T06:55:48.291Z,13.77
2017-11-11T06:58:16.212Z,8.10
2017-11-11T07:00:43.761Z,10.93
2017-11-11T07:03:11.286Z,16.60
2017-11-11T07:05:38.806Z,15.68
2017-11-11T07:08:06.338Z,11.77
2017-11-11T07:10:33.860Z,14.98
2017-11-11T07:13:01.394Z,12.27
2017-11-11T07:15:29.306Z,16.95
2017-11-11T07:17:56.852Z,10.88
2017-11-11T07:20:24.774Z,10.80
2017-11-11T07:22:52.311Z,12.93
2017-11-11T07:25:20.221Z,11.35
2017-11-11T07:27:47.741Z,12.70
2017-11-11T07:30:15.283Z,9.88
2017-11-11T07:32:42.797Z,8.88
2017-11-11T07:35:10.341Z,10.57
2017-11-11T07:37:37.866Z,11.82
2017-11-11T07:40:05.426Z,12.70
2017-11-11T07:42:32.955Z,6.75
2017-11-11T07:45:00.509Z,7.03
2017-11-11T07:47:28.037Z,11.38
2017-11-11T07:49:55.549Z,12.30
2017-11-11T07:52:23.072Z,7.55
2017-11-11T07:54:50.984Z,8.90
2017-11-11T07:57:18.532Z,9.63
2017-11-11T07:59:46.061Z,8.20
2017-11-11T08:02:13.605Z,6.25
2017-11-11T08:04:41.130Z,8.82
2017-11-11T08:07:09.071Z,10.07
2017-11-11T08:09:36.581Z,8.52
2017-11-11T08:12:04.499Z,13.98
2017-11-11T08:14:32.038Z,6.50
2017-11-11T08:16:59.556Z,8.18
2017-11-11T08:19:27.099Z,10.50
2017-11-11T08:21:54.618Z,6.78
2017-11-11T08:24:22.151Z,4.15
2017-11-11T08:26:49.661Z,6.65
2017-11-11T08:29:17.198Z,5.65
2017-11-11T08:31:44.708Z,8.23
2017-11-11T08:34:12.241Z,9.00
2017-11-11T08:36:39.763Z,12.57
2017-11-11T08:39:07.309Z,37.47
2017-11-11T08:41:34.851Z,19.58
2017-11-11T08:44:02.385Z,18.77
2017-11-11T08:46:30.306Z,12.02
2017-11-11T08:48:57.877Z,14.68
2017-11-11T08:51:25.400Z,10.13
2017-11-11T08:53:52.934Z,6.43
2017-11-11T08:56:20.455Z,6.90
2017-11-11T08:58:48.380Z,8.45
2017-11-11T09:01:15.896Z,8.18
2017-11-11T09:03:43.846Z,8.90
2017-11-11T09:06:11.358Z,9.15
2017-11-11T09:08:39.299Z,8.02
2017-11-11T09:11:06.828Z,9.60
2017-11-11T09:13:34.342Z,7.97
2017-11-11T09:16:01.888Z,6.68
2017-11-11T09:18:29.429Z,11.82
2017-11-11T09:20:56.979Z,8.88
2017-11-11T09:23:24.901Z,8.57
2017-11-11T09:25:52.441Z,11.75
2017-11-11T09:28:20.353Z,15.18
2017-11-11T09:30:47.898Z,15.98
2017-11-11T09:33:15.422Z,14.38
2017-11-11T09:35:42.954Z,7.93
2017-11-11T09:38:10.474Z,9.45
2017-11-11T09:40:38.013Z,11.88
2017-11-11T09:43:05.535Z,13.57
2017-11-11T09:45:33.077Z,10.45
2017-11-11T09:48:00.607Z,11.25
2017-11-11T09:50:28.203Z,8.20
2017-11-11T09:52:55.731Z,12.85
2017-11-11T09:55:23.667Z,10.38
2017-11-11T09:57:51.194Z,9.27
2017-11-11T10:00:18.750Z,12.27
2017-11-11T10:02:46.669Z,9.88
2017-11-11T10:05:14.209Z,7.57
2017-11-11T10:07:42.144Z,11.18
2017-11-11T10:10:09.716Z,12.70
2017-11-11T10:12:37.237Z,9.20
2017-11-11T10:15:05.175Z,7.90
2017-11-11T10:17:32.699Z,10.77
2017-11-11T10:20:00.263Z,16.80
2017-11-11T10:22:28.629Z,10.38
2017-11-11T10:24:56.212Z,11.30
2017-11-11T10:27:24.124Z,14.02
2017-11-11T10:29:51.667Z,9.07
2017-11-11T10:32:19.586Z,16.35
2017-11-11T10:34:47.150Z,17.45
2017-11-11T10:37:14.691Z,12.27
2017-11-11T10:39:42.600Z,9.93
2017-11-11T10:42:10.143Z,13.10
2017-11-11T10:44:38.068Z,22.02
2017-11-11T10:47:05.609Z,9.85
2017-11-11T10:49:33.148Z,15.98
2017-11-11T10:52:00.690Z,12.00
2017-11-11T10:54:28.201Z,9.98
2017-11-11T10:56:55.751Z,10.68
2017-11-11T10:59:23.283Z,12.73
2017-11-11T11:01:50.832Z,11.63
2017-11-11T11:04:18.350Z,9.75
2017-11-11T11:06:45.892Z,16.12
2017-11-11T11:09:13.445Z,13.32
2017-11-11T11:11:40.993Z,8.20
2017-11-11T11:14:08.525Z,11.88
2017-11-11T11:16:36.063Z,11.63
2017-11-11T11:19:04.019Z,9.82
2017-11-11T11:21:31.571Z,14.60
2017-11-11T11:23:59.093Z,12.23
2017-11-11T11:26:26.639Z,14.73
2017-11-11T11:28:54.551Z,12.90
2017-11-11T11:31:22.095Z,15.05
2017-11-11T11:33:50.023Z,14.57
2017-11-11T11:36:17.603Z,11.27
2017-11-11T11:38:45.128Z,14.27
2017-11-11T11:41:13.064Z,16.15
2017-11-11T11:43:40.582Z,16.77
2017-11-11T11:46:08.515Z,21.45
2017-11-11T11:48:36.045Z,15.93
2017-11-11T11:51:03.582Z,12.68
2017-11-11T11:53:31.109Z,17.25
2017-11-11T11:55:58.649Z,14.82
2017-11-11T11:58:26.557Z,12.63
2017-11-11T12:00:54.137Z,15.95
2017-11-11T12:03:21.653Z,14.18
2017-11-11T12:05:49.179Z,16.67
2017-11-11T12:08:16.714Z,19.25
2017-11-11T12:10:44.233Z,26.30
2017-11-11T12:13:11.765Z,14.10
2017-11-11T12:15:39.294Z,18.60
2017-11-11T12:18:06.825Z,20.95
2017-11-11T12:20:34.341Z,21.15
2017-11-11T12:23:01.890Z,19.15
2017-11-11T12:25:29.423Z,20.37
2017-11-11T12:27:56.958Z,25.15
2017-11-11T12:30:24.495Z,18.98
2017-11-11T12:32:52.042Z,22.87
2017-11-11T12:35:19.561Z,19.62
2017-11-11T12:37:47.101Z,20.17
2017-11-11T12:40:14.639Z,20.40
2017-11-11T12:42:42.575Z,22.15
2017-11-11T12:45:10.107Z,19.27
2017-11-11T12:47:37.649Z,24.40
2017-11-11T12:50:05.576Z,22.85
2017-11-11T12:52:33.124Z,23.05
2017-11-11T12:55:00.659Z,25.73
2017-11-11T12:57:28.211Z,24.58
2017-11-11T12:59:55.738Z,23.05
2017-11-11T13:02:23.282Z,23.70
2017-11-11T13:04:50.810Z,22.52
2017-11-11T13:07:18.346Z,26.50
2017-11-11T13:09:45.875Z,30.02
2017-11-11T13:12:13.421Z,34.08
2017-11-11T13:14:40.982Z,39.97
2017-11-11T13:17:08.510Z,37.33
2017-11-11T13:19:36.055Z,41.20
2017-11-11T13:22:03.593Z,42.03
2017-11-11T13:24:31.114Z,39.00
2017-11-11T13:26:58.640Z,53.25
2017-11-11T13:29:26.188Z,54.65
2017-11-11T13:31:53.710Z,65.93
2017-11-11T13:34:21.324Z,56.17
2017-11-11T13:36:49.251Z,65.03
2017-11-11T13:39:16.790Z,56.67
2017-11-11T13:41:44.317Z,61.60
2017-11-11T13:44:11.860Z,42.97
2017-11-11T13:46:39.393Z,46.95
2017-11-11T13:49:06.936Z,39.55
2017-11-11T13:51:34.474Z,38.63
2017-11-11T13:54:02.023Z,35.25
2017-11-11T13:56:29.558Z,34.38
2017-11-11T13:58:57.193Z,33.33
2017-11-11T14:01:24.719Z,32.08
2017-11-11T14:03:52.262Z,29.45
2017-11-11T14:06:19.790Z,29.15
2017-11-11T14:08:47.324Z,26.65
2017-11-11T14:11:14.846Z,23.70
2017-11-11T14:13:42.419Z,21.25
2017-11-11T14:16:09.951Z,33.50
2017-11-11T14:18:37.883Z,19.05
2017-11-11T14:21:05.422Z,19.65
2017-11-11T14:23:32.967Z,22.08
2017-11-11T14:26:00.892Z,19.00
2017-11-11T14:28:28.427Z,22.45
2017-11-11T14:30:56.059Z,25.62
2017-11-11T14:33:23.623Z,24.12
2017-11-11T14:35:51.153Z,28.17
2017-11-11T14:38:18.737Z,23.75
2017-11-11T14:40:46.292Z,29.55
2017-11-11T14:43:13.847Z,26.90
2017-11-11T14:45:41.785Z,28.67
2017-11-11T14:48:09.382Z,30.70
2017-11-11T14:50:36.987Z,28.35
2017-11-11T14:53:04.914Z,27.50
2017-11-11T14:55:32.460Z,27.23
2017-11-11T14:58:00.055Z,27.42
2017-11-11T15:00:27.601Z,26.27
2017-11-11T15:02:55.140Z,27.25
2017-11-11T15:05:23.079Z,23.65
2017-11-11T15:07:50.613Z,28.70
2017-11-11T15:10:18.158Z,63.03
2017-11-11T15:12:45.682Z,35.17
2017-11-11T15:15:13.236Z,29.80
2017-11-11T15:17:40.771Z,25.45
2017-11-11T15:20:08.309Z,25.45
2017-11-11T15:22:35.826Z,25.02
2017-11-11T15:25:03.759Z,29.50
2017-11-11T15:27:31.292Z,28.65
2017-11-11T15:29:58.826Z,31.17
2017-11-11T15:32:26.349Z,28.30
2017-11-11T15:34:53.900Z,29.58
2017-11-11T15:37:21.818Z,35.90
2017-11-11T15:39:49.365Z,30.73
2017-11-11T15:42:16.881Z,27.25
2017-11-11T15:44:44.425Z,30.02
2017-11-11T15:47:11.961Z,30.58
2017-11-11T15:49:39.905Z,31.05
2017-11-11T15:52:07.467Z,33.17
2017-11-11T15:54:35.010Z,35.78
2017-11-11T15:57:02.559Z,39.35
2017-11-11T15:59:30.494Z,41.83
2017-11-11T16:01:58.024Z,40.05
2017-11-11T16:04:25.654Z,46.70
2017-11-11T16:06:53.591Z,43.33
2017-11-11T16:09:21.151Z,44.90
2017-11-11T16:11:48.678Z,42.03
2017-11-11T16:14:16.246Z,40.92
2017-11-11T16:16:43.790Z,43.97
2017-11-11T16:19:11.375Z,46.67
2017-11-11T16:21:38.994Z,38.58
2017-11-11T16:24:06.582Z,42.53
2017-11-11T16:26:34.125Z,36.10
2017-11-11T16:29:01.824Z,33.75
2017-11-11T16:31:29.375Z,33.15
2017-11-11T16:33:57.308Z,34.38
2017-11-11T16:36:24.850Z,34.15
2017-11-11T16:38:52.368Z,34.00
2017-11-11T16:41:19.919Z,38.17
2017-11-11T16:43:47.445Z,38.13
2017-11-11T16:46:14.993Z,37.42
2017-11-11T16:48:42.519Z,41.33
2017-11-11T16:51:10.063Z,38.30
2017-11-11T16:53:37.977Z,41.13
2017-11-11T16:56:05.515Z,41.25
2017-11-11T16:58:33.041Z,47.40
2017-11-11T17:01:00.590Z,50.95
2017-11-11T17:03:28.118Z,51.78
2017-11-11T17:05:56.054Z,47.58
2017-11-11T17:08:23.594Z,49.38
2017-11-11T17:10:51.861Z,54.78
2017-11-11T17:13:19.785Z,59.90
2017-11-11T17:15:47.326Z,65.00
2017-11-11T17:18:15.247Z,61.22
2017-11-11T17:20:42.801Z,57.33
2017-11-11T17:23:10.347Z,59.03
2017-11-11T17:25:37.901Z,61.10
2017-11-11T17:28:05.413Z,60.90
2017-11-11T17:30:32.962Z,56.42
2017-11-11T17:33:00.870Z,56.67
2017-11-11T17:35:28.413Z,57.35
2017-11-11T17:37:55.965Z,52.65
2017-11-11T17:40:23.494Z,63.47
2017-11-11T17:42:51.035Z,42.70
2017-11-11T17:45:18.561Z,41.70
2017-11-11T17:47:46.103Z,30.73
2017-11-11T17:50:13.634Z,26.42
2017-11-11T17:52:41.560Z,26.52
2017-11-11T17:55:09.093Z,29.55
2017-11-11T17:57:37.145Z,29.50
2017-11-11T18:00:05.083Z,26.62
2017-11-11T18:02:32.888Z,26.33
2017-11-11T18:05:00.422Z,31.73
2017-11-11T18:07:27.980Z,32.70
2017-11-11T18:09:55.518Z,25.67
2017-11-11T18:12:23.052Z,32.47
2017-11-11T18:14:50.649Z,32.00
2017-11-11T18:17:18.201Z,27.85
2017-11-11T18:19:45.779Z,37.53
2017-11-11T18:22:13.330Z,30.55
2017-11-11T18:24:40.873Z,27.77
2017-11-11T18:27:08.442Z,32.15
2017-11-11T18:29:36.360Z,22.33
2017-11-11T18:32:03.921Z,25.00
2017-11-11T18:34:31.467Z,28.95
2017-11-11T18:36:59.034Z,28.05
2017-11-11T18:39:26.636Z,29.52
2017-11-11T18:41:54.189Z,31.80
2017-11-11T18:44:22.111Z,30.33
2017-11-11T18:46:49.689Z,25.00
2017-11-11T18:49:17.217Z,32.67
2017-11-11T18:51:45.315Z,28.17
2017-11-11T18:54:12.832Z,31.17
2017-11-11T18:56:40.377Z,30.60
2017-11-11T18:59:07.922Z,34.35
2017-11-11T19:01:35.611Z,46.25
2017-11-11T19:04:03.130Z,50.97
2017-11-11T19:06:30.655Z,55.17
2017-11-11T19:08:58.221Z,47.28
2017-11-11T19:11:25.750Z,56.10
2017-11-11T19:13:53.289Z,64.07
2017-11-11T19:16:20.813Z,63.80
2017-11-11T19:18:48.801Z,60.30
2017-11-11T19:21:16.724Z,78.35
2017-11-11T19:23:44.263Z,75.12
2017-11-11T19:26:11.792Z,76.10
2017-11-11T19:28:39.329Z,68.18
2017-11-11T19:31:06.849Z,70.07
2017-11-11T19:33:34.789Z,72.62
2017-11-11T19:36:02.328Z,59.40
2017-11-11T19:38:29.880Z,70.60
2017-11-11T19:40:57.420Z,58.83
2017-11-11T19:43:24.961Z,54.80
2017-11-11T19:45:52.502Z,72.03
2017-11-11T19:48:20.049Z,66.62
2017-11-11T19:50:47.583Z,69.00
2017-11-11T19:53:15.136Z,58.20
2017-11-11T19:55:42.713Z,59.85
2017-11-11T19:58:10.264Z,62.92
2017-11-11T20:00:37.797Z,67.32
2017-11-11T20:03:05.352Z,74.00
2017-11-11T20:05:32.889Z,80.50
2017-11-11T20:08:00.444Z,80.38
2017-11-11T20:10:28.372Z,95.95
2017-11-11T20:12:55.931Z,100.95
2017-11-11T20:15:23.474Z,106.72
2017-11-11T20:17:51.025Z,121.93
2017-11-11T20:20:21.758Z,104.07
2017-11-11T20:22:49.299Z,117.32
2017-11-11T20:25:16.835Z,110.50
2017-11-11T20:27:44.424Z,107.12
2017-11-11T20:30:11.967Z,125.28
2017-11-11T20:32:41.837Z,124.10
2017-11-11T20:35:09.381Z,143.87
2017-11-11T20:37:36.924Z,145.60
2017-11-11T20:40:04.489Z,140.65
2017-11-11T20:42:32.023Z,120.20
2017-11-11T20:44:59.566Z,132.23
2017-11-11T20:47:27.101Z,139.95
2017-11-11T20:49:54.633Z,110.43
2017-11-11T20:52:22.174Z,105.45
2017-11-11T20:54:49.720Z,103.38
2017-11-11T20:57:17.265Z,105.10
2017-11-11T20:59:44.801Z,105.20
2017-11-11T21:02:12.330Z,95.20
2017-11-11T21:04:39.875Z,105.35
2017-11-11T21:07:07.417Z,101.93
2017-11-11T21:09:34.965Z,97.07
2017-11-11T21:12:02.903Z,94.85
2017-11-11T21:14:30.465Z,83.87
2017-11-11T21:16:57.987Z,85.25
2017-11-11T21:19:25.931Z,91.82
2017-11-11T21:21:53.461Z,96.75
2017-11-11T21:24:21.017Z,104.30
2017-11-11T21:26:48.552Z,99.78
2017-11-11T21:29:16.103Z,112.60
2017-11-11T21:31:43.648Z,106.70
2017-11-11T21:34:11.220Z,107.15
2017-11-11T21:36:38.754Z,102.38
2017-11-11T21:39:06.299Z,112.55
2017-11-11T21:41:33.841Z,112.43
2017-11-11T21:44:01.382Z,92.30
2017-11-11T21:46:29.304Z,107.87
2017-11-11T21:48:56.844Z,98.12
2017-11-11T21:51:24.376Z,102.78
2017-11-11T21:53:51.898Z,88.50
2017-11-11T21:56:19.461Z,100.18
2017-11-11T21:58:47.004Z,107.82
2017-11-11T22:01:14.553Z,101.80
2017-11-11T22:03:42.084Z,106.18
2017-11-11T22:06:09.649Z,119.00
2017-11-11T22:08:37.177Z,107.37
2017-11-11T22:11:04.725Z,118.85
2017-11-11T22:13:32.253Z,119.37
2017-11-11T22:16:00.202Z,131.68
2017-11-11T22:18:27.729Z,122.60
2017-11-11T22:20:55.283Z,116.93
2017-11-11T22:23:22.807Z,126.62
2017-11-11T22:25:50.362Z,128.23
2017-11-11T22:28:17.892Z,121.00
2017-11-11T22:30:45.473Z,116.05
2017-11-11T22:33:13.003Z,131.45
2017-11-11T22:35:40.518Z,108.97
2017-11-11T22:38:08.061Z,113.40
2017-11-11T22:40:35.991Z,115.10
2017-11-11T22:43:03.529Z,124.45
2017-11-11T22:45:31.054Z,111.88
2017-11-11T22:47:58.601Z,97.43
2017-11-11T22:50:26.122Z,101.55
2017-11-11T22:52:53.698Z,105.15
2017-11-11T22:55:21.623Z,93.95
2017-11-11T22:57:49.189Z,110.18
2017-11-11T23:00:28.623Z,99.72
2017-11-11T23:02:56.159Z,86.70
2017-11-11T23:05:23.701Z,103.65
2017-11-11T23:07:51.243Z,103.20
2017-11-11T23:10:18.793Z,88.85
2017-11-11T23:12:46.316Z,105.70
2017-11-11T23:15:13.890Z,92.65
2017-11-11T23:17:41.410Z,100.68
2017-11-11T23:20:08.940Z,83.90
2017-11-11T23:22:36.478Z,89.20
2017-11-11T23:25:03.998Z,86.18
2017-11-11T23:27:31.539Z,96.80
2017-11-11T23:29:59.061Z,107.45
2017-11-11T23:32:26.610Z,94.15
2017-11-11T23:34:54.134Z,88.53
2017-11-11T23:37:21.695Z,104.45
2017-11-11T23:39:49.265Z,94.80
2017-11-11T23:42:16.972Z,91.60
2017-11-11T23:44:44.519Z,98.87
2017-11-11T23:47:12.122Z,79.65
2017-11-11T23:49:39.661Z,83.70
2017-11-11T23:52:07.181Z,83.97
2017-11-11T23:54:34.727Z,97.07
2017-11-11T23:57:02.250Z,84.95
2017-11-11T23:59:29.985Z,84.40
